Marine Blue — 3ECO4 — position and weather

sailwx.info

Track history (hours):
 
Tides and Currents Weather Stations Pressure Air Temp Water Temp Dewpoint Dewpoint Depression Visibility Wind Speed Wind Dir Waves Ship Positions

Marine Blue

Last reported at 2014-Aug-21 15:09 UTC. Time now 2014-Sep-03 07:21 UTC.
Position N 34°42' E 139°33'.
Warning: this ship's position is 12 days out of date.

Length 125 m; draft 9 m.

Type: Cargo ship. MMSI: 371414000.

Date/timePositionNaut miles runAvg speedWind from/ knotsBaromVisibWave heightAir tempDewpointWater temp
2014-Aug-21 15:09N 34°42' E 139°33'811.2
2014-Aug-21 14:28N 34°49' E 139°37'1111.6
2014-Aug-21 13:33N 34°59' E 139°40'1211.8
2014-Aug-21 12:33N 35°10' E 139°45'1010.4
2014-Aug-21 11:34N 35°20' E 139°43'6 6.1
2014-Aug-21 10:31N 35°26' E 139°40'0 0.0
2014-Aug-21 09:31N 35°26' E 139°40'0 0.0
2014-Aug-21 08:31N 35°26' E 139°40'0 0.0
2014-Aug-21 07:31N 35°26' E 139°40'0 0.0
2014-Aug-21 06:31N 35°26' E 139°40'0 0.0
2014-Aug-21 05:31N 35°26' E 139°40'0 0.0
2014-Aug-21 04:31N 35°26' E 139°40'0 0.0
2014-Aug-21 03:31N 35°26' E 139°40'0 0.0
2014-Aug-21 02:31N 35°26' E 139°40'0 0.0
2014-Aug-21 01:31N 35°26' E 139°40'0 0.0
2014-Aug-21 00:31N 35°26' E 139°40'0 0.0
2014-Aug-20 23:31N 35°26' E 139°40'0 0.0
2014-Aug-20 22:31N 35°26' E 139°40'0 0.3
2014-Aug-20 21:33N 35°27' E 139°40'2 1.5
2014-Aug-20 20:31N 35°26' E 139°42'0 0.0
2014-Aug-20 19:31N 35°26' E 139°42'0 0.0
2014-Aug-20 18:31N 35°26' E 139°42'0 0.0
2014-Aug-20 17:31N 35°26' E 139°42'0 0.1
2014-Aug-20 16:31N 35°26' E 139°42'0 0.0
2014-Aug-20 15:31N 35°26' E 139°42'0 0.0
2014-Aug-20 14:28N 35°26' E 139°42'0 0.0
2014-Aug-20 13:31N 35°26' E 139°42'0 0.0
2014-Aug-20 12:31N 35°26' E 139°42'0 0.1
2014-Aug-20 11:31N 35°26' E 139°42'0 0.0
2014-Aug-20 10:31N 35°26' E 139°42'0 0.1
2014-Aug-20 09:31N 35°26' E 139°42'0 0.1
2014-Aug-20 08:31N 35°26' E 139°42'2 2.0
2014-Aug-20 07:33N 35°24' E 139°43'1111.2
2014-Aug-20 06:33N 35°13' E 139°47'1313.0
2014-Aug-20 05:33N 35°01' E 139°43'1513.2
2014-Aug-20 04:27N 34°48' E 139°35'23110.5
2014-Aug-19 06:33N 34°09' E 134°59'1110.3
2014-Aug-19 05:32N 34°19' E 134°59'1111.0
2014-Aug-19 04:33N 34°30' E 135°02'14 7.3
2014-Aug-19 02:33N 34°32' E 134°45'10 0.3
2014-Aug-17 10:28N 34°42' E 134°48'2 0.9
2014-Aug-17 08:05N 34°40' E 134°47'0 0.0
2014-Aug-17 07:23N 34°40' E 134°47'0 0.1
2014-Aug-17 05:28N 34°40' E 134°47'0 0.1
2014-Aug-17 04:16N 34°40' E 134°46'0 0.0
2014-Aug-17 03:16N 34°40' E 134°46'0 0.0
2014-Aug-17 01:22N 34°40' E 134°47'0 0.0
2014-Aug-17 00:22N 34°40' E 134°47'0 0.1
2014-Aug-16 23:22N 34°40' E 134°47'0 0.0
2014-Aug-16 22:28N 34°40' E 134°47'0 0.0
2014-Aug-16 21:28N 34°40' E 134°47'0 0.0
2014-Aug-16 20:16N 34°40' E 134°47'0 0.0
2014-Aug-16 18:16N 34°40' E 134°47'0 0.1
2014-Aug-16 17:22N 34°40' E 134°47'0 0.1
2014-Aug-16 16:28N 34°40' E 134°47'0 0.0
2014-Aug-16 15:28N 34°40' E 134°47'0 0.1
2014-Aug-16 14:28N 34°40' E 134°46'0 0.0
2014-Aug-16 13:22N 34°40' E 134°46'0 0.1
2014-Aug-16 12:28N 34°40' E 134°47'0 0.1
2014-Aug-16 11:22N 34°40' E 134°47'0 0.0
2014-Aug-16 10:22N 34°40' E 134°47'0 0.0
2014-Aug-16 09:28N 34°40' E 134°47'0 0.0
2014-Aug-16 08:04N 34°40' E 134°47'0 0.0
2014-Aug-16 07:04N 34°40' E 134°47'0 0.0
2014-Aug-16 06:10N 34°40' E 134°47'0 0.1
2014-Aug-16 05:22N 34°40' E 134°47'0 0.0
2014-Aug-16 04:10N 34°40' E 134°47'0 0.0
2014-Aug-16 03:28N 34°40' E 134°47'0 0.0
2014-Aug-16 01:28N 34°40' E 134°47'0 0.0
2014-Aug-16 00:22N 34°40' E 134°47'0 0.1
2014-Aug-15 22:22N 34°40' E 134°47'0 0.0
2014-Aug-15 20:28N 34°40' E 134°47'0 0.0
2014-Aug-15 19:22N 34°40' E 134°47'0 0.0
2014-Aug-15 18:27N 34°40' E 134°47'0 0.1
2014-Aug-15 17:33N 34°40' E 134°47'0 0.0
2014-Aug-15 16:21N 34°40' E 134°47'0 0.0
2014-Aug-15 15:27N 34°40' E 134°47'0 0.1
2014-Aug-15 14:33N 34°40' E 134°46'0 0.0
2014-Aug-15 13:33N 34°40' E 134°46'0 0.0
2014-Aug-15 12:33N 34°40' E 134°46'0 0.1
2014-Aug-15 11:27N 34°40' E 134°47'0 0.0
2014-Aug-15 05:21N 34°40' E 134°47'0 0.1
2014-Aug-15 04:33N 34°40' E 134°47'0 0.0
2014-Aug-15 02:33N 34°40' E 134°47'0 0.0
2014-Aug-15 01:33N 34°40' E 134°47'0 0.0
2014-Aug-15 00:33N 34°40' E 134°47'0 0.1
2014-Aug-14 23:33N 34°40' E 134°47'0 0.1
2014-Aug-14 22:21N 34°40' E 134°47'0 0.1
2014-Aug-14 21:33N 34°40' E 134°47'0 0.1
2014-Aug-14 20:33N 34°40' E 134°47'0 0.0
2014-Aug-14 19:17N 34°40' E 134°47'0 0.1
2014-Aug-14 18:33N 34°40' E 134°47'4 3.6
2014-Aug-14 17:31N 34°38' E 134°50'1111.4
2014-Aug-14 16:33N 34°36' E 135°03'1312.8
2014-Aug-14 15:32N 34°23' E 135°02'1414.0
2014-Aug-14 14:33N 34°10' E 135°00'1714.0
2014-Aug-14 13:20N 33°53' E 135°01'  
Track history (hours):
 
Tides and Currents Weather Stations Pressure Air Temp Water Temp Dewpoint Dewpoint Depression Visibility Wind Speed Wind Dir Waves Ship Positions

Marine Blue

Last reported at 2014-Aug-21 15:09 UTC. Time now 2014-Sep-03 07:21 UTC.
Position N 34°42' E 139°33'.
Warning: this ship's position is 12 days out of date.

Length 125 m; draft 9 m.

Type: Cargo ship. MMSI: 371414000.

Date/timePositionNaut miles runAvg speedWind from/ knotsBaromVisibWave heightAir tempDewpointWater temp
2014-Aug-21 15:09N 34°42' E 139°33'811.2
2014-Aug-21 14:28N 34°49' E 139°37'1111.6
2014-Aug-21 13:33N 34°59' E 139°40'1211.8
2014-Aug-21 12:33N 35°10' E 139°45'1010.4
2014-Aug-21 11:34N 35°20' E 139°43'6 6.1
2014-Aug-21 10:31N 35°26' E 139°40'0 0.0
2014-Aug-21 09:31N 35°26' E 139°40'0 0.0
2014-Aug-21 08:31N 35°26' E 139°40'0 0.0
2014-Aug-21 07:31N 35°26' E 139°40'0 0.0
2014-Aug-21 06:31N 35°26' E 139°40'0 0.0
2014-Aug-21 05:31N 35°26' E 139°40'0 0.0
2014-Aug-21 04:31N 35°26' E 139°40'0 0.0
2014-Aug-21 03:31N 35°26' E 139°40'0 0.0
2014-Aug-21 02:31N 35°26' E 139°40'0 0.0
2014-Aug-21 01:31N 35°26' E 139°40'0 0.0
2014-Aug-21 00:31N 35°26' E 139°40'0 0.0
2014-Aug-20 23:31N 35°26' E 139°40'0 0.0
2014-Aug-20 22:31N 35°26' E 139°40'0 0.3
2014-Aug-20 21:33N 35°27' E 139°40'2 1.5
2014-Aug-20 20:31N 35°26' E 139°42'0 0.0
2014-Aug-20 19:31N 35°26' E 139°42'0 0.0
2014-Aug-20 18:31N 35°26' E 139°42'0 0.0
2014-Aug-20 17:31N 35°26' E 139°42'0 0.1
2014-Aug-20 16:31N 35°26' E 139°42'0 0.0
2014-Aug-20 15:31N 35°26' E 139°42'0 0.0
2014-Aug-20 14:28N 35°26' E 139°42'0 0.0
2014-Aug-20 13:31N 35°26' E 139°42'0 0.0
2014-Aug-20 12:31N 35°26' E 139°42'0 0.1
2014-Aug-20 11:31N 35°26' E 139°42'0 0.0
2014-Aug-20 10:31N 35°26' E 139°42'0 0.1
2014-Aug-20 09:31N 35°26' E 139°42'0 0.1
2014-Aug-20 08:31N 35°26' E 139°42'2 2.0
2014-Aug-20 07:33N 35°24' E 139°43'1111.2
2014-Aug-20 06:33N 35°13' E 139°47'1313.0
2014-Aug-20 05:33N 35°01' E 139°43'1513.2
2014-Aug-20 04:27N 34°48' E 139°35'23110.5
2014-Aug-19 06:33N 34°09' E 134°59'1110.3
2014-Aug-19 05:32N 34°19' E 134°59'1111.0
2014-Aug-19 04:33N 34°30' E 135°02'14 7.3
2014-Aug-19 02:33N 34°32' E 134°45'10 0.3
2014-Aug-17 10:28N 34°42' E 134°48'2 0.9
2014-Aug-17 08:05N 34°40' E 134°47'0 0.0
2014-Aug-17 07:23N 34°40' E 134°47'0 0.1
2014-Aug-17 05:28N 34°40' E 134°47'0 0.1
2014-Aug-17 04:16N 34°40' E 134°46'0 0.0
2014-Aug-17 03:16N 34°40' E 134°46'0 0.0
2014-Aug-17 01:22N 34°40' E 134°47'0 0.0
2014-Aug-17 00:22N 34°40' E 134°47'0 0.1
2014-Aug-16 23:22N 34°40' E 134°47'0 0.0
2014-Aug-16 22:28N 34°40' E 134°47'0 0.0
2014-Aug-16 21:28N 34°40' E 134°47'0 0.0
2014-Aug-16 20:16N 34°40' E 134°47'0 0.0
2014-Aug-16 18:16N 34°40' E 134°47'0 0.1
2014-Aug-16 17:22N 34°40' E 134°47'0 0.1
2014-Aug-16 16:28N 34°40' E 134°47'0 0.0
2014-Aug-16 15:28N 34°40' E 134°47'0 0.1
2014-Aug-16 14:28N 34°40' E 134°46'0 0.0
2014-Aug-16 13:22N 34°40' E 134°46'0 0.1
2014-Aug-16 12:28N 34°40' E 134°47'0 0.1
2014-Aug-16 11:22N 34°40' E 134°47'0 0.0
2014-Aug-16 10:22N 34°40' E 134°47'0 0.0
2014-Aug-16 09:28N 34°40' E 134°47'0 0.0
2014-Aug-16 08:04N 34°40' E 134°47'0 0.0
2014-Aug-16 07:04N 34°40' E 134°47'0 0.0
2014-Aug-16 06:10N 34°40' E 134°47'0 0.1
2014-Aug-16 05:22N 34°40' E 134°47'0 0.0
2014-Aug-16 04:10N 34°40' E 134°47'0 0.0
2014-Aug-16 03:28N 34°40' E 134°47'0 0.0
2014-Aug-16 01:28N 34°40' E 134°47'0 0.0
2014-Aug-16 00:22N 34°40' E 134°47'0 0.1
2014-Aug-15 22:22N 34°40' E 134°47'0 0.0
2014-Aug-15 20:28N 34°40' E 134°47'0 0.0
2014-Aug-15 19:22N 34°40' E 134°47'0 0.0
2014-Aug-15 18:27N 34°40' E 134°47'0 0.1
2014-Aug-15 17:33N 34°40' E 134°47'0 0.0
2014-Aug-15 16:21N 34°40' E 134°47'0 0.0
2014-Aug-15 15:27N 34°40' E 134°47'0 0.1
2014-Aug-15 14:33N 34°40' E 134°46'0 0.0
2014-Aug-15 13:33N 34°40' E 134°46'0 0.0
2014-Aug-15 12:33N 34°40' E 134°46'0 0.1
2014-Aug-15 11:27N 34°40' E 134°47'0 0.0
2014-Aug-15 05:21N 34°40' E 134°47'0 0.1
2014-Aug-15 04:33N 34°40' E 134°47'0 0.0
2014-Aug-15 02:33N 34°40' E 134°47'0 0.0
2014-Aug-15 01:33N 34°40' E 134°47'0 0.0
2014-Aug-15 00:33N 34°40' E 134°47'0 0.1
2014-Aug-14 23:33N 34°40' E 134°47'0 0.1
2014-Aug-14 22:21N 34°40' E 134°47'0 0.1
2014-Aug-14 21:33N 34°40' E 134°47'0 0.1
2014-Aug-14 20:33N 34°40' E 134°47'0 0.0
2014-Aug-14 19:17N 34°40' E 134°47'0 0.1
2014-Aug-14 18:33N 34°40' E 134°47'4 3.6
2014-Aug-14 17:31N 34°38' E 134°50'1111.4
2014-Aug-14 16:33N 34°36' E 135°03'1312.8
2014-Aug-14 15:32N 34°23' E 135°02'1414.0
2014-Aug-14 14:33N 34°10' E 135°00'1714.0
2014-Aug-14 13:20N 33°53' E 135°01'  

Dump ship's entire track history